createdAt,value
2019-04-14T00:00:36.341Z,22.45
2019-04-14T00:03:15.699Z,21.70
2019-04-14T00:05:45.139Z,22.52
2019-04-14T00:08:13.921Z,21.48
2019-04-14T00:10:42.607Z,24.23
2019-04-14T00:13:13.175Z,23.38
2019-04-14T00:15:46.747Z,21.93
2019-04-14T00:18:12.463Z,24.67
2019-04-14T00:20:41.145Z,23.22
2019-04-14T00:23:11.304Z,20.70
2019-04-14T00:25:43.280Z,22.37
2019-04-14T00:28:11.633Z,19.67
2019-04-14T00:30:40.601Z,22.85
2019-04-14T00:33:14.889Z,25.10
2019-04-14T00:35:45.379Z,23.77
2019-04-14T00:38:17.456Z,21.23
2019-04-14T00:41:00.692Z,23.27
2019-04-14T00:43:31.115Z,20.45
2019-04-14T00:46:02.686Z,23.12
2019-04-14T00:48:32.062Z,18.15
2019-04-14T00:51:00.866Z,19.35
2019-04-14T00:53:31.702Z,21.95
2019-04-14T00:56:01.834Z,23.07
2019-04-14T00:58:30.654Z,19.27
2019-04-14T01:01:00.557Z,21.73
2019-04-14T01:03:29.198Z,19.90
2019-04-14T01:05:58.985Z,22.40
2019-04-14T01:08:27.828Z,21.27
2019-04-14T01:10:56.702Z,20.90
2019-04-14T01:13:26.695Z,21.33
2019-04-14T01:16:03.903Z,21.87
2019-04-14T01:18:25.998Z,21.17
2019-04-14T01:20:55.672Z,21.37
2019-04-14T01:23:24.462Z,19.37
2019-04-14T01:25:54.200Z,20.57
2019-04-14T01:28:24.302Z,20.60
2019-04-14T01:30:54.359Z,21.25
2019-04-14T01:33:23.374Z,24.05
2019-04-14T01:35:53.156Z,19.87
2019-04-14T01:38:23.239Z,24.43
2019-04-14T01:40:53.146Z,21.12
2019-04-14T01:43:29.967Z,25.43
2019-04-14T01:46:08.952Z,23.57
2019-04-14T01:48:30.043Z,22.75
2019-04-14T01:51:07.083Z,21.95
2019-04-14T01:53:40.741Z,22.82
2019-04-14T01:56:12.317Z,25.62
2019-04-14T01:58:49.187Z,21.65
2019-04-14T02:01:19.619Z,24.95
2019-04-14T02:03:48.384Z,25.48
2019-04-14T02:06:17.978Z,23.32
2019-04-14T02:08:47.960Z,22.52
2019-04-14T02:11:16.800Z,24.10
2019-04-14T02:13:46.447Z,22.65
2019-04-14T02:16:25.921Z,21.45
2019-04-14T02:18:47.019Z,21.65
2019-04-14T02:21:17.232Z,23.00
2019-04-14T02:23:46.043Z,23.22
2019-04-14T02:26:15.499Z,23.52
2019-04-14T02:28:44.296Z,24.25
2019-04-14T02:31:29.759Z,22.62
2019-04-14T02:34:07.419Z,21.87
2019-04-14T02:36:47.696Z,24.12
2019-04-14T02:39:13.931Z,22.50
2019-04-14T02:41:54.234Z,24.55
2019-04-14T02:44:20.813Z,22.65
2019-04-14T02:46:49.768Z,22.73
2019-04-14T02:49:13.745Z,21.05
2019-04-14T02:51:54.046Z,23.70
2019-04-14T02:59:36.320Z,24.67
2019-04-14T03:01:50.730Z,21.70
2019-04-14T03:04:20.944Z,23.10
2019-04-14T03:06:48.518Z,19.65
2019-04-14T03:09:32.686Z,23.25
2019-04-14T03:14:25.433Z,23.02
2019-04-14T03:17:25.074Z,23.30
2019-04-14T03:20:05.358Z,24.70
2019-04-14T03:39:00.304Z,21.48
2019-04-14T03:41:25.726Z,23.07
2019-04-14T03:43:54.495Z,21.62
2019-04-14T03:46:25.476Z,21.95
2019-04-14T03:51:28.076Z,23.42
2019-04-14T03:53:55.944Z,21.75
2019-04-14T03:56:10.371Z,21.73
2019-04-14T03:58:37.828Z,24.00
2019-04-14T04:01:08.348Z,23.25
2019-04-14T04:04:00.698Z,21.00
2019-04-14T04:06:29.407Z,23.65
2019-04-14T04:08:58.133Z,24.57
2019-04-14T04:11:27.928Z,24.85
2019-04-14T04:13:56.830Z,21.00
2019-04-14T04:16:31.314Z,22.60
2019-04-14T04:19:06.372Z,23.00
2019-04-14T04:21:50.901Z,21.87
2019-04-14T04:27:29.073Z,23.20
2019-04-14T04:32:47.264Z,21.82
2019-04-14T04:35:17.627Z,21.42
2019-04-14T04:37:47.964Z,22.02
2019-04-14T04:40:18.344Z,23.87
2019-04-14T04:42:48.292Z,23.65
2019-04-14T04:45:17.258Z,23.05
2019-04-14T04:47:46.999Z,21.20
2019-04-14T04:50:15.770Z,22.62
2019-04-14T04:52:45.160Z,24.23
2019-04-14T04:55:17.764Z,22.90
2019-04-14T04:57:48.460Z,19.45
2019-04-14T05:00:19.728Z,21.57
2019-04-14T05:02:48.450Z,20.85
2019-04-14T05:05:53.621Z,21.77
2019-04-14T05:08:22.387Z,20.95
2019-04-14T05:10:52.715Z,22.95
2019-04-14T05:13:22.664Z,20.97
2019-04-14T05:15:53.256Z,21.90
2019-04-14T05:18:22.359Z,20.27
2019-04-14T05:20:51.140Z,22.85
2019-04-14T05:23:21.209Z,21.40
2019-04-14T05:25:50.068Z,22.07
2019-04-14T05:28:19.845Z,23.20
2019-04-14T05:30:48.881Z,20.68
2019-04-14T05:33:18.541Z,19.42
2019-04-14T05:35:50.956Z,20.70
2019-04-14T05:38:33.910Z,22.85
2019-04-14T05:41:02.942Z,21.60
2019-04-14T05:43:41.531Z,21.40
2019-04-14T05:46:03.403Z,21.77
2019-04-14T05:48:33.637Z,23.65
2019-04-14T05:51:02.593Z,22.80
2019-04-14T05:53:31.249Z,20.40
2019-04-14T05:55:59.958Z,21.50
2019-04-14T05:58:31.836Z,23.07
2019-04-14T06:01:00.498Z,23.32
2019-04-14T06:03:29.942Z,20.32
2019-04-14T06:05:58.851Z,21.85
2019-04-14T06:08:27.549Z,18.50
2019-04-14T06:10:59.373Z,18.45
2019-04-14T06:13:28.078Z,20.85
2019-04-14T06:15:56.910Z,20.27
2019-04-14T06:18:25.616Z,19.15
2019-04-14T06:20:54.379Z,17.10
2019-04-14T06:23:23.324Z,20.32
2019-04-14T06:25:52.087Z,20.02
2019-04-14T06:28:20.748Z,16.42
2019-04-14T06:31:08.964Z,17.37
2019-04-14T06:33:39.773Z,16.70
2019-04-14T06:36:28.275Z,17.90
2019-04-14T06:39:04.618Z,17.75
2019-04-14T06:41:33.340Z,21.12
2019-04-14T06:44:04.864Z,17.98
2019-04-14T06:46:34.904Z,19.20
2019-04-14T06:49:05.231Z,17.80
2019-04-14T06:51:33.994Z,17.92
2019-04-14T06:54:02.682Z,18.02
2019-04-14T06:56:31.433Z,18.98
2019-04-14T06:59:00.184Z,19.30
2019-04-14T07:01:28.956Z,17.40
2019-04-14T07:03:57.715Z,20.08
2019-04-14T07:06:26.479Z,20.65
2019-04-14T07:08:58.095Z,16.32
2019-04-14T07:11:26.924Z,17.62
2019-04-14T07:13:58.943Z,17.67
2019-04-14T07:16:30.735Z,18.12
2019-04-14T07:18:59.407Z,18.25
2019-04-14T07:21:46.224Z,18.90
2019-04-14T07:24:18.234Z,15.55
2019-04-14T07:26:51.605Z,16.20
2019-04-14T07:29:33.232Z,16.15
2019-04-14T07:32:20.138Z,16.57
2019-04-14T07:34:59.266Z,19.65
2019-04-14T07:37:32.329Z,17.57
2019-04-14T07:40:11.887Z,17.48
2019-04-14T07:42:57.198Z,17.73
2019-04-14T07:45:27.528Z,16.12
2019-04-14T07:47:57.874Z,15.28
2019-04-14T07:50:40.018Z,18.40
2019-04-14T07:56:10.514Z,18.90
2019-04-14T07:58:41.372Z,17.73
2019-04-14T08:01:13.157Z,16.15
2019-04-14T08:04:00.487Z,13.95
2019-04-14T08:06:29.230Z,18.07
2019-04-14T08:08:57.966Z,17.65
2019-04-14T08:11:26.708Z,18.70
2019-04-14T08:13:55.445Z,19.90
2019-04-14T08:16:24.229Z,17.15
2019-04-14T08:18:52.965Z,14.98
2019-04-14T08:21:22.869Z,15.28
2019-04-14T08:23:51.684Z,19.48
2019-04-14T08:26:20.516Z,16.62
2019-04-14T08:28:52.025Z,15.32
2019-04-14T08:31:20.738Z,18.20
2019-04-14T08:33:49.472Z,18.65
2019-04-14T08:36:18.233Z,19.00
2019-04-14T08:38:46.902Z,16.73
2019-04-14T08:41:15.666Z,17.37
2019-04-14T08:43:49.269Z,18.42
2019-04-14T08:46:19.615Z,17.12
2019-04-14T08:48:55.713Z,17.30
2019-04-14T08:51:31.807Z,18.62
2019-04-14T08:54:02.126Z,19.55
2019-04-14T08:56:32.461Z,20.55
2019-04-14T08:59:18.946Z,20.23
2019-04-14T09:01:58.370Z,20.15
2019-04-14T09:04:41.046Z,19.92
2019-04-14T09:07:22.075Z,17.35
2019-04-14T09:10:01.588Z,16.62
2019-04-14T09:12:34.940Z,17.27
2019-04-14T09:15:04.279Z,17.95
2019-04-14T09:17:33.108Z,16.80
2019-04-14T09:20:02.201Z,22.05
2019-04-14T09:22:31.677Z,22.62
2019-04-14T09:25:01.311Z,17.27
2019-04-14T09:27:31.402Z,17.75
2019-04-14T09:30:00.204Z,21.52
2019-04-14T09:32:30.160Z,16.45
2019-04-14T09:35:01.155Z,15.18
2019-04-14T09:37:30.111Z,17.48
2019-04-14T09:40:01.736Z,18.40
2019-04-14T09:42:30.524Z,18.70
2019-04-14T09:44:59.402Z,19.82
2019-04-14T09:47:28.236Z,20.20
2019-04-14T09:49:56.951Z,17.45
2019-04-14T09:52:25.671Z,17.40
2019-04-14T09:54:54.547Z,20.75
2019-04-14T09:57:23.323Z,18.52
2019-04-14T09:59:52.265Z,16.12
2019-04-14T10:02:21.069Z,19.37
2019-04-14T10:05:11.465Z,17.60
2019-04-14T10:07:44.831Z,19.20
2019-04-14T10:10:13.636Z,16.57
2019-04-14T10:12:42.341Z,20.55
2019-04-14T10:15:11.115Z,22.10
2019-04-14T10:17:39.854Z,18.40
2019-04-14T10:20:08.681Z,19.52
2019-04-14T10:22:37.331Z,17.45
2019-04-14T10:25:06.385Z,21.50
2019-04-14T10:27:39.351Z,18.07
2019-04-14T10:30:12.156Z,18.20
2019-04-14T10:32:40.861Z,17.07
2019-04-14T10:35:09.631Z,19.67
2019-04-14T10:37:38.311Z,21.35
2019-04-14T10:40:07.090Z,19.70
2019-04-14T10:42:44.250Z,18.92
2019-04-14T10:45:18.121Z,17.07
2019-04-14T10:47:45.607Z,17.23
2019-04-14T10:50:14.304Z,17.90
2019-04-14T10:52:42.989Z,15.40
2019-04-14T10:55:11.965Z,16.02
2019-04-14T10:57:40.938Z,17.23
2019-04-14T11:00:11.756Z,18.60
2019-04-14T11:02:47.981Z,16.50
2019-04-14T11:05:16.723Z,17.42
2019-04-14T11:07:45.716Z,17.00
2019-04-14T11:10:16.255Z,17.05
2019-04-14T11:12:44.963Z,17.62
2019-04-14T11:15:16.488Z,15.18
2019-04-14T11:17:45.222Z,16.48
2019-04-14T11:20:16.442Z,16.12
2019-04-14T11:22:45.406Z,17.07
2019-04-14T11:25:14.142Z,16.73
2019-04-14T11:27:42.819Z,18.87
2019-04-14T11:30:15.114Z,19.48
2019-04-14T11:33:03.373Z,17.17
2019-04-14T11:35:36.562Z,18.92
2019-04-14T11:38:07.043Z,18.05
2019-04-14T11:40:43.350Z,16.52
2019-04-14T11:43:13.461Z,17.67
2019-04-14T11:45:42.373Z,15.75
2019-04-14T11:48:11.436Z,17.82
2019-04-14T11:50:40.388Z,16.27
2019-04-14T11:53:12.625Z,18.40
2019-04-14T11:55:43.781Z,17.12
2019-04-14T11:58:20.285Z,19.35
2019-04-14T12:01:06.565Z,17.73
2019-04-14T12:03:36.921Z,18.55
2019-04-14T12:06:15.596Z,18.00
2019-04-14T12:08:45.921Z,18.40
2019-04-14T12:11:14.678Z,19.87
2019-04-14T12:13:45.562Z,20.37
2019-04-14T12:16:14.504Z,18.87
2019-04-14T12:18:43.306Z,17.87
2019-04-14T12:21:12.155Z,19.90
2019-04-14T12:23:43.702Z,18.10
2019-04-14T12:26:13.969Z,19.70
2019-04-14T12:28:42.929Z,17.48
2019-04-14T12:31:13.108Z,17.25
2019-04-14T12:33:42.061Z,17.85
2019-04-14T12:36:12.918Z,18.75
2019-04-14T12:38:41.763Z,18.70
2019-04-14T12:41:12.572Z,18.77
2019-04-14T12:43:57.855Z,18.77
2019-04-14T12:46:43.426Z,19.37
2019-04-14T12:49:16.357Z,19.05
2019-04-14T12:51:55.447Z,18.92
2019-04-14T12:54:25.508Z,19.25
2019-04-14T12:56:54.293Z,18.45
2019-04-14T12:59:23.840Z,18.82
2019-04-14T13:02:12.723Z,17.60
2019-04-14T13:04:41.526Z,19.77
2019-04-14T13:07:10.425Z,19.92
2019-04-14T13:09:39.780Z,18.45
2019-04-14T13:12:10.326Z,17.50
2019-04-14T13:14:43.086Z,18.77
2019-04-14T13:17:11.837Z,20.43
2019-04-14T13:19:41.541Z,20.15
2019-04-14T13:22:10.364Z,21.15
2019-04-14T13:24:40.753Z,20.50
2019-04-14T13:27:09.810Z,20.95
2019-04-14T13:29:38.518Z,20.75
2019-04-14T13:32:07.505Z,19.10
2019-04-14T13:34:36.279Z,20.08
2019-04-14T13:37:06.659Z,20.15
2019-04-14T13:39:35.382Z,22.22
2019-04-14T13:42:04.075Z,20.05
2019-04-14T13:44:35.679Z,20.25
2019-04-14T13:47:04.502Z,20.20
2019-04-14T13:49:33.227Z,19.75
2019-04-14T13:52:01.927Z,24.27
2019-04-14T13:54:30.701Z,21.90
2019-04-14T13:56:59.443Z,19.70
2019-04-14T13:59:31.075Z,20.97
2019-04-14T14:01:59.860Z,19.73
2019-04-14T14:04:28.637Z,24.18
2019-04-14T14:06:57.429Z,23.80
2019-04-14T14:09:26.388Z,22.02
2019-04-14T14:12:06.946Z,22.62
2019-04-14T14:14:49.234Z,22.30
2019-04-14T14:17:21.388Z,22.48
2019-04-14T14:19:51.699Z,21.90
2019-04-14T14:22:22.032Z,20.08
2019-04-14T14:24:52.370Z,20.92
2019-04-14T14:27:21.117Z,23.27
2019-04-14T14:29:49.909Z,21.65
2019-04-14T14:32:23.160Z,23.20
2019-04-14T14:34:52.030Z,21.73
2019-04-14T14:37:47.417Z,22.37
2019-04-14T14:40:17.126Z,20.85
2019-04-14T14:42:45.845Z,24.57
2019-04-14T14:45:19.247Z,21.48
2019-04-14T14:47:51.040Z,21.20
2019-04-14T14:50:33.447Z,20.00
2019-04-14T14:53:11.865Z,20.48
2019-04-14T14:55:32.656Z,22.60
2019-04-14T14:58:01.451Z,18.57
2019-04-14T15:00:32.170Z,21.25
2019-04-14T15:03:02.481Z,22.32
2019-04-14T15:05:34.167Z,23.62
2019-04-14T15:08:02.913Z,21.68
2019-04-14T15:10:31.729Z,20.43
2019-04-14T15:13:00.504Z,21.90
2019-04-14T15:15:31.855Z,22.52
2019-04-14T15:18:02.542Z,29.27
2019-04-14T15:20:31.310Z,20.68
2019-04-14T15:23:00.275Z,21.90
2019-04-14T15:25:30.909Z,19.52
2019-04-14T15:28:01.366Z,21.35
2019-04-14T15:30:30.405Z,20.90
2019-04-14T15:32:59.394Z,23.15
2019-04-14T15:35:28.291Z,24.23
2019-04-14T15:37:57.656Z,21.17
2019-04-14T15:40:26.611Z,24.32
2019-04-14T15:42:55.621Z,22.32
2019-04-14T15:45:27.275Z,23.10
2019-04-14T15:47:56.835Z,24.15
2019-04-14T15:50:27.260Z,26.73
2019-04-14T15:52:58.159Z,26.05
2019-04-14T15:55:27.061Z,22.45
2019-04-14T15:58:00.219Z,25.55
2019-04-14T16:00:42.822Z,23.75
2019-04-14T16:03:13.144Z,21.68
2019-04-14T16:05:43.609Z,20.05
2019-04-14T16:08:13.973Z,20.72
2019-04-14T16:10:44.427Z,21.97
2019-04-14T16:13:14.745Z,19.62
2019-04-14T16:15:45.051Z,18.73
2019-04-14T16:18:21.407Z,21.27
2019-04-14T16:20:50.169Z,23.42
2019-04-14T16:23:18.872Z,21.95
2019-04-14T16:25:49.182Z,19.50
2019-04-14T16:32:05.174Z,17.98
2019-04-14T16:34:35.643Z,20.00
2019-04-14T16:37:04.462Z,20.43
2019-04-14T16:39:33.229Z,19.55
2019-04-14T16:42:01.990Z,19.90
2019-04-14T16:44:30.786Z,21.45
2019-04-14T16:47:02.566Z,21.80
2019-04-14T16:49:31.711Z,19.95
2019-04-14T16:52:11.145Z,19.60
2019-04-14T16:54:41.690Z,18.75
2019-04-14T16:57:29.116Z,39.80
2019-04-14T16:59:58.327Z,18.67
2019-04-14T17:02:28.436Z,18.62
2019-04-14T17:04:57.162Z,23.12
2019-04-14T17:07:25.898Z,18.62
2019-04-14T17:09:56.320Z,18.95
2019-04-14T17:12:26.699Z,19.73
2019-04-14T17:21:01.488Z,16.52
2019-04-14T17:26:49.246Z,18.45
2019-04-14T17:29:19.580Z,17.15
2019-04-14T17:31:59.099Z,19.82
2019-04-14T17:34:30.779Z,20.23
2019-04-14T17:37:10.130Z,17.73
2019-04-14T17:39:58.619Z,19.30
2019-04-14T17:42:30.145Z,20.95
2019-04-14T17:45:12.636Z,20.25
2019-04-14T17:47:58.445Z,17.17
2019-04-14T17:50:40.968Z,17.85
2019-04-14T17:53:13.168Z,16.75
2019-04-14T17:56:00.264Z,17.63
2019-04-14T17:58:30.790Z,24.18
2019-04-14T18:01:20.858Z,20.02
2019-04-14T18:03:51.183Z,21.45
2019-04-14T18:09:22.133Z,19.27
2019-04-14T18:12:08.967Z,16.73
2019-04-14T18:14:39.286Z,19.60
2019-04-14T18:17:24.753Z,19.25
2019-04-14T18:20:00.892Z,24.20
2019-04-14T18:22:29.660Z,19.87
2019-04-14T18:24:58.404Z,17.45
2019-04-14T18:27:27.228Z,19.15
2019-04-14T18:30:09.908Z,17.75
2019-04-14T18:32:45.836Z,18.12
2019-04-14T18:35:21.963Z,22.40
2019-04-14T18:38:07.576Z,20.57
2019-04-14T18:40:54.281Z,20.70
2019-04-14T18:43:33.597Z,19.85
2019-04-14T18:46:06.691Z,17.05
2019-04-14T18:48:37.038Z,16.17
2019-04-14T18:51:21.079Z,18.10
2019-04-14T18:54:00.519Z,19.25
2019-04-14T18:59:38.858Z,18.90
2019-04-14T19:02:08.163Z,17.52
2019-04-14T19:04:36.969Z,20.12
2019-04-14T19:07:05.729Z,17.32
2019-04-14T19:09:34.543Z,16.07
2019-04-14T19:12:09.658Z,19.80
2019-04-14T19:14:40.063Z,18.00
2019-04-14T19:17:26.562Z,20.17
2019-04-14T19:20:01.959Z,17.85
2019-04-14T19:22:29.053Z,20.52
2019-04-14T19:25:34.192Z,16.85
2019-04-14T19:28:03.093Z,17.32
2019-04-14T19:30:31.892Z,16.67
2019-04-14T19:33:00.715Z,19.73
2019-04-14T19:35:32.435Z,16.87
2019-04-14T19:38:01.316Z,15.88
2019-04-14T19:40:30.077Z,17.90
2019-04-14T19:42:58.973Z,20.43
2019-04-14T19:45:27.745Z,17.52
2019-04-14T19:47:56.538Z,17.05
2019-04-14T19:50:25.275Z,17.87
2019-04-14T19:52:54.065Z,20.55
2019-04-14T19:55:26.737Z,15.80
2019-04-14T19:57:56.955Z,18.57
2019-04-14T20:00:27.286Z,16.42
2019-04-14T20:02:56.307Z,19.65
2019-04-14T20:05:24.989Z,18.85
2019-04-14T20:07:56.853Z,23.45
2019-04-14T20:10:27.688Z,19.85
2019-04-14T20:12:56.473Z,15.05
2019-04-14T20:15:26.805Z,17.92
2019-04-14T20:17:57.319Z,13.80
2019-04-14T20:20:33.470Z,15.48
2019-04-14T20:23:20.370Z,14.73
2019-04-14T20:26:07.406Z,19.10
2019-04-14T20:28:53.491Z,14.10
2019-04-14T20:31:26.775Z,12.90
2019-04-14T20:33:58.145Z,12.33
2019-04-14T20:36:26.809Z,18.35
2019-04-14T20:38:55.588Z,14.47
2019-04-14T20:41:24.363Z,14.93
2019-04-14T20:43:53.169Z,16.32
2019-04-14T20:46:23.393Z,13.65
2019-04-14T20:48:58.877Z,14.60
2019-04-14T20:51:37.298Z,15.28
2019-04-14T20:54:05.535Z,14.55
2019-04-14T20:56:34.215Z,13.03
2019-04-14T20:59:03.008Z,11.28
2019-04-14T21:01:33.327Z,9.95
2019-04-14T21:04:03.677Z,11.70
2019-04-14T21:06:43.170Z,12.73
2019-04-14T21:09:28.402Z,13.10
2019-04-14T21:12:01.747Z,14.55
2019-04-14T21:14:35.001Z,10.20
2019-04-14T21:17:07.549Z,11.48
2019-04-14T21:19:41.026Z,9.68
2019-04-14T21:22:17.456Z,8.33
2019-04-14T21:24:47.789Z,9.60
2019-04-14T21:27:21.298Z,9.90
2019-04-14T21:29:51.662Z,8.63
2019-04-14T21:32:24.942Z,10.55
2019-04-14T21:35:02.451Z,12.95
2019-04-14T21:37:38.685Z,11.70
2019-04-14T21:40:14.509Z,9.65
2019-04-14T21:42:43.827Z,10.85
2019-04-14T21:45:12.878Z,11.75
2019-04-14T21:47:41.631Z,10.58
2019-04-14T21:50:13.607Z,11.50
2019-04-14T21:52:43.930Z,12.15
2019-04-14T21:55:12.810Z,10.80
2019-04-14T21:57:43.139Z,9.25
2019-04-14T22:00:30.516Z,9.58
2019-04-14T22:03:16.819Z,9.80
2019-04-14T22:06:03.976Z,12.35
2019-04-14T22:08:40.321Z,8.98
2019-04-14T22:11:10.776Z,12.33
2019-04-14T22:13:42.668Z,11.88
2019-04-14T22:16:11.945Z,9.90
2019-04-14T22:18:40.888Z,10.80
2019-04-14T22:21:10.149Z,12.33
2019-04-14T22:23:38.948Z,11.93
2019-04-14T22:26:08.369Z,12.23
2019-04-14T22:28:39.777Z,11.68
2019-04-14T22:31:08.188Z,12.30
2019-04-14T22:33:37.949Z,14.10
2019-04-14T22:36:07.220Z,10.32
2019-04-14T22:38:37.616Z,11.68
2019-04-14T22:41:06.436Z,8.33
2019-04-14T22:43:36.663Z,8.08
2019-04-14T22:46:05.550Z,10.88
2019-04-14T22:48:35.947Z,9.88
2019-04-14T22:51:04.682Z,10.65
2019-04-14T22:53:34.983Z,11.20
2019-04-14T22:56:07.042Z,11.30
2019-04-14T22:58:35.826Z,11.40
2019-04-14T23:01:12.660Z,9.50
2019-04-14T23:03:43.127Z,12.58
2019-04-14T23:06:22.625Z,10.80
2019-04-14T23:09:03.007Z,9.48
2019-04-14T23:11:36.160Z,10.70
2019-04-14T23:14:12.692Z,11.25
2019-04-14T23:16:59.543Z,9.60
2019-04-14T23:19:34.986Z,11.75
2019-04-14T23:22:07.979Z,10.25
2019-04-14T23:24:45.600Z,12.15
2019-04-14T23:27:14.392Z,11.33
2019-04-14T23:29:43.196Z,13.05
2019-04-14T23:32:11.947Z,15.53
2019-04-14T23:34:40.681Z,14.20
2019-04-14T23:37:14.330Z,13.75
2019-04-14T23:39:43.078Z,10.68
2019-04-14T23:42:11.895Z,11.18
2019-04-14T23:44:40.648Z,9.83
2019-04-14T23:47:09.448Z,13.65
2019-04-14T23:49:38.318Z,15.23
2019-04-14T23:52:11.600Z,11.95
2019-04-14T23:54:41.026Z,10.88
2019-04-14T23:57:14.676Z,10.48
2019-04-14T23:59:46.448Z,11.45
